createdAt,value
2023-04-29T00:01:32.402Z,100.00
2023-04-29T00:03:59.413Z,100.00
2023-04-29T00:06:26.553Z,100.00
2023-04-29T00:08:53.425Z,100.00
2023-04-29T00:11:20.508Z,100.00
2023-04-29T00:13:47.303Z,100.00
2023-04-29T00:16:14.145Z,100.00
2023-04-29T00:18:40.930Z,100.00
2023-04-29T00:21:07.721Z,100.00
2023-04-29T00:23:35.106Z,100.00
2023-04-29T00:26:02.104Z,100.00
2023-04-29T00:28:28.953Z,100.00
2023-04-29T00:30:56.299Z,100.00
2023-04-29T00:33:23.408Z,100.00
2023-04-29T00:35:50.397Z,100.00
2023-04-29T00:38:17.213Z,100.00
2023-04-29T00:40:44.836Z,100.00
2023-04-29T00:43:11.717Z,100.00
2023-04-29T00:45:38.574Z,100.00
2023-04-29T00:48:05.524Z,100.00
2023-04-29T00:50:32.496Z,100.00
2023-04-29T00:53:00.147Z,100.00
2023-04-29T00:55:27.359Z,100.00
2023-04-29T00:57:54.301Z,100.00
2023-04-29T01:00:21.277Z,100.00
2023-04-29T01:02:50.189Z,100.00
2023-04-29T01:05:18.085Z,100.00
2023-04-29T01:07:51.175Z,100.00
2023-04-29T01:10:41.085Z,100.00
2023-04-29T01:13:07.928Z,100.00
2023-04-29T01:15:59.675Z,100.00
2023-04-29T01:18:30.451Z,100.00
2023-04-29T01:20:59.309Z,100.00
2023-04-29T01:23:27.531Z,100.00
2023-04-29T01:25:54.508Z,100.00
2023-04-29T01:28:39.485Z,100.00
2023-04-29T01:31:23.288Z,100.00
2023-04-29T01:34:14.479Z,100.00
2023-04-29T01:36:50.221Z,100.00
2023-04-29T01:39:27.087Z,100.00
2023-04-29T01:42:02.490Z,100.00
2023-04-29T01:44:31.778Z,100.00
2023-04-29T01:46:59.652Z,100.00
2023-04-29T01:49:27.653Z,100.00
2023-04-29T01:51:54.671Z,100.00
2023-04-29T01:54:24.534Z,100.00
2023-04-29T01:56:52.187Z,100.00
2023-04-29T01:59:20.015Z,100.00
2023-04-29T02:01:47.380Z,100.00
2023-04-29T02:04:14.169Z,100.00
2023-04-29T02:06:40.989Z,100.00
2023-04-29T02:09:07.953Z,100.00
2023-04-29T02:11:34.719Z,100.00
2023-04-29T02:14:01.579Z,100.00
2023-04-29T02:16:28.392Z,100.00
2023-04-29T02:18:55.271Z,100.00
2023-04-29T02:21:22.006Z,100.00
2023-04-29T02:23:48.778Z,100.00
2023-04-29T02:26:15.655Z,100.00
2023-04-29T02:28:42.612Z,100.00
2023-04-29T02:31:09.352Z,100.00
2023-04-29T02:33:36.177Z,100.00
2023-04-29T02:36:03.062Z,100.00
2023-04-29T02:38:29.867Z,100.00
2023-04-29T02:40:57.185Z,100.00
2023-04-29T02:43:24.162Z,100.00
2023-04-29T02:45:50.979Z,100.00
2023-04-29T02:48:18.089Z,100.00
2023-04-29T02:50:44.806Z,100.00
2023-04-29T02:53:11.751Z,100.00
2023-04-29T02:55:38.695Z,100.00
2023-04-29T02:58:05.750Z,100.00
2023-04-29T03:00:32.682Z,100.00
2023-04-29T03:03:01.964Z,100.00
2023-04-29T03:05:28.939Z,100.00
2023-04-29T03:07:55.770Z,100.00
2023-04-29T03:10:22.648Z,100.00
2023-04-29T03:12:49.507Z,100.00
2023-04-29T03:15:17.118Z,100.00
2023-04-29T03:17:45.641Z,100.00
2023-04-29T03:20:12.873Z,100.00
2023-04-29T03:22:39.805Z,100.00
2023-04-29T03:25:07.201Z,100.00
2023-04-29T03:27:34.116Z,100.00
2023-04-29T03:30:00.894Z,100.00
2023-04-29T03:32:27.741Z,100.00
2023-04-29T03:34:55.294Z,100.00
2023-04-29T03:37:22.052Z,100.00
2023-04-29T03:39:48.814Z,100.00
2023-04-29T03:42:15.767Z,100.00
2023-04-29T03:44:42.593Z,100.00
2023-04-29T03:47:09.368Z,100.00
2023-04-29T03:49:36.231Z,100.00
2023-04-29T03:52:04.765Z,100.00
2023-04-29T03:54:31.947Z,100.00
2023-04-29T03:56:58.740Z,100.00
2023-04-29T03:59:25.595Z,100.00
2023-04-29T04:01:54.181Z,100.00
2023-04-29T04:04:22.025Z,100.00
2023-04-29T04:06:52.020Z,100.00
2023-04-29T04:09:18.916Z,100.00
2023-04-29T04:11:46.156Z,100.00
2023-04-29T04:14:13.056Z,100.00
2023-04-29T04:16:40.207Z,100.00
2023-04-29T04:19:07.110Z,100.00
2023-04-29T04:21:34.671Z,100.00
2023-04-29T04:24:01.520Z,100.00
2023-04-29T04:26:28.300Z,100.00
2023-04-29T04:28:55.074Z,100.00
2023-04-29T04:31:21.823Z,100.00
2023-04-29T04:33:48.590Z,100.00
2023-04-29T04:36:15.346Z,100.00
2023-04-29T04:38:45.345Z,100.00
2023-04-29T04:41:12.508Z,100.00
2023-04-29T04:43:41.081Z,100.00
2023-04-29T04:46:12.344Z,100.00
2023-04-29T04:48:39.677Z,100.00
2023-04-29T04:51:13.675Z,100.00
2023-04-29T04:53:41.061Z,100.00
2023-04-29T04:56:08.397Z,100.00
2023-04-29T04:58:35.168Z,100.00
2023-04-29T05:01:02.259Z,100.00
2023-04-29T05:03:29.223Z,100.00
2023-04-29T05:06:00.751Z,100.00
2023-04-29T05:08:27.618Z,100.00
2023-04-29T05:10:54.577Z,100.00
2023-04-29T05:13:21.508Z,100.00
2023-04-29T05:15:48.370Z,100.00
2023-04-29T05:18:15.299Z,100.00
2023-04-29T05:20:42.111Z,100.00
2023-04-29T05:23:10.112Z,100.00
2023-04-29T05:25:36.878Z,100.00
2023-04-29T05:28:04.624Z,100.00
2023-04-29T05:30:31.470Z,100.00
2023-04-29T05:32:58.745Z,100.00
2023-04-29T05:35:25.734Z,100.00
2023-04-29T05:37:52.518Z,100.00
2023-04-29T05:40:19.404Z,100.00
2023-04-29T05:42:47.103Z,100.00
2023-04-29T05:45:14.062Z,100.00
2023-04-29T05:47:40.857Z,100.00
2023-04-29T05:50:08.144Z,100.00
2023-04-29T05:52:34.920Z,100.00
2023-04-29T05:55:01.699Z,100.00
2023-04-29T05:57:28.646Z,100.00
2023-04-29T05:59:55.571Z,100.00
2023-04-29T06:02:22.756Z,100.00
2023-04-29T06:04:49.887Z,100.00
2023-04-29T06:07:19.577Z,100.00
2023-04-29T06:09:47.317Z,100.00
2023-04-29T06:12:14.220Z,100.00
2023-04-29T06:14:41.042Z,100.00
2023-04-29T06:17:08.037Z,100.00
2023-04-29T06:19:35.029Z,100.00
2023-04-29T06:22:01.786Z,100.00
2023-04-29T06:24:28.573Z,100.00
2023-04-29T06:26:55.392Z,100.00
2023-04-29T06:29:22.710Z,100.00
2023-04-29T06:31:49.566Z,100.00
2023-04-29T06:34:16.512Z,100.00
2023-04-29T06:36:43.385Z,100.00
2023-04-29T06:39:10.198Z,100.00
2023-04-29T06:41:37.112Z,100.00
2023-04-29T06:44:04.016Z,100.00
2023-04-29T06:46:30.919Z,100.00
2023-04-29T06:48:57.772Z,100.00
2023-04-29T06:51:24.961Z,100.00
2023-04-29T06:53:51.865Z,100.00
2023-04-29T06:56:18.882Z,100.00
2023-04-29T06:58:45.704Z,100.00
2023-04-29T07:01:12.587Z,100.00
2023-04-29T07:03:39.503Z,100.00
2023-04-29T07:06:06.647Z,100.00
2023-04-29T07:08:33.562Z,100.00
2023-04-29T07:11:00.385Z,100.00
2023-04-29T07:13:27.276Z,100.00
2023-04-29T07:15:54.261Z,100.00
2023-04-29T07:18:21.118Z,100.00
2023-04-29T07:20:48.183Z,99.40
2023-04-29T07:23:15.420Z,99.00
2023-04-29T07:25:42.277Z,99.50
2023-04-29T07:28:09.413Z,99.40
2023-04-29T07:30:36.499Z,100.00
2023-04-29T07:33:04.433Z,99.90
2023-04-29T07:35:31.760Z,100.00
2023-04-29T07:37:58.642Z,98.30
2023-04-29T07:40:25.558Z,97.20
2023-04-29T07:42:52.442Z,95.40
2023-04-29T07:45:19.289Z,95.20
2023-04-29T07:47:46.306Z,95.90
2023-04-29T07:50:13.389Z,95.10
2023-04-29T07:52:40.237Z,94.80
2023-04-29T07:55:07.354Z,93.10
2023-04-29T07:57:34.094Z,92.40
2023-04-29T08:00:00.969Z,90.70
2023-04-29T08:02:27.957Z,91.60
2023-04-29T08:04:56.101Z,89.00
2023-04-29T08:07:23.646Z,84.60
2023-04-29T08:09:50.432Z,81.10
2023-04-29T08:12:17.428Z,79.20
2023-04-29T08:14:44.225Z,80.70
2023-04-29T08:17:11.316Z,76.30
2023-04-29T08:19:38.255Z,74.90
2023-04-29T08:22:05.098Z,74.40
2023-04-29T08:24:33.695Z,78.20
2023-04-29T08:27:01.385Z,78.60
2023-04-29T08:29:28.147Z,77.10
2023-04-29T08:31:55.410Z,74.70
2023-04-29T08:34:22.253Z,70.20
2023-04-29T08:36:49.134Z,68.80
2023-04-29T08:39:15.933Z,64.50
2023-04-29T08:41:45.572Z,64.40
2023-04-29T08:44:12.366Z,65.20
2023-04-29T08:46:39.503Z,63.40
2023-04-29T08:49:07.090Z,63.80
2023-04-29T08:51:34.907Z,64.10
2023-04-29T08:54:01.812Z,64.50
2023-04-29T08:56:31.005Z,62.70
2023-04-29T08:58:58.971Z,65.40
2023-04-29T09:01:29.171Z,62.70
2023-04-29T09:04:23.942Z,64.20
2023-04-29T09:06:51.739Z,67.20
2023-04-29T09:09:20.761Z,65.80
2023-04-29T09:11:47.916Z,66.90
2023-04-29T09:14:15.269Z,66.80
2023-04-29T09:16:42.220Z,66.30
2023-04-29T09:19:09.037Z,66.80
2023-04-29T09:21:35.937Z,60.50
2023-04-29T09:24:04.038Z,62.20
2023-04-29T09:26:42.992Z,61.60
2023-04-29T09:29:16.285Z,60.50
2023-04-29T09:31:43.337Z,57.20
2023-04-29T09:34:14.267Z,55.20
2023-04-29T09:36:42.058Z,56.30
2023-04-29T09:39:13.394Z,57.60
2023-04-29T09:41:50.547Z,57.50
2023-04-29T09:44:17.381Z,58.10
2023-04-29T09:46:44.558Z,57.30
2023-04-29T09:49:25.226Z,55.80
2023-04-29T09:51:56.186Z,52.40
2023-04-29T09:54:33.791Z,51.90
2023-04-29T09:57:02.696Z,54.50
2023-04-29T09:59:29.464Z,56.10
2023-04-29T10:01:58.592Z,52.80
2023-04-29T10:04:27.513Z,52.90
2023-04-29T10:06:55.982Z,54.80
2023-04-29T10:09:23.887Z,57.30
2023-04-29T10:11:52.963Z,56.20
2023-04-29T10:14:22.256Z,55.10
2023-04-29T10:16:58.992Z,54.90
2023-04-29T10:19:38.595Z,57.70
2023-04-29T10:22:09.119Z,54.40
2023-04-29T10:24:40.239Z,54.90
2023-04-29T10:27:15.132Z,53.90
2023-04-29T10:29:44.504Z,56.00
2023-04-29T10:32:14.323Z,54.20
2023-04-29T10:34:42.449Z,53.30
2023-04-29T10:37:11.647Z,51.60
2023-04-29T10:39:49.031Z,50.20
2023-04-29T10:42:42.195Z,53.20
2023-04-29T10:45:27.501Z,50.20
2023-04-29T10:48:06.451Z,49.20
2023-04-29T10:50:34.776Z,49.10
2023-04-29T10:53:05.592Z,49.30
2023-04-29T10:55:40.436Z,47.60
2023-04-29T10:58:36.074Z,48.70
2023-04-29T11:01:03.414Z,47.00
2023-04-29T11:03:46.726Z,45.80
2023-04-29T11:06:13.643Z,48.20
2023-04-29T11:08:40.924Z,46.60
2023-04-29T11:11:07.977Z,44.40
2023-04-29T11:13:39.626Z,43.00
2023-04-29T11:16:09.519Z,43.20
2023-04-29T11:18:37.896Z,42.20
2023-04-29T11:21:04.691Z,44.20
2023-04-29T11:23:38.760Z,42.60
2023-04-29T11:26:05.680Z,41.50
2023-04-29T11:28:32.909Z,42.40
2023-04-29T11:31:00.790Z,44.40
2023-04-29T11:33:28.260Z,44.30
2023-04-29T11:35:55.917Z,44.50
2023-04-29T11:38:27.072Z,44.70
2023-04-29T11:40:56.226Z,43.50
2023-04-29T11:43:26.196Z,44.90
2023-04-29T11:45:53.978Z,41.60
2023-04-29T11:48:25.868Z,45.90
2023-04-29T11:50:57.040Z,42.80
2023-04-29T11:53:29.450Z,46.60
2023-04-29T11:55:57.039Z,43.30
2023-04-29T11:58:24.791Z,42.90
2023-04-29T12:00:54.643Z,44.20
2023-04-29T12:03:21.852Z,41.10
2023-04-29T12:05:56.681Z,41.20
2023-04-29T12:08:26.424Z,41.20
2023-04-29T12:10:57.819Z,41.50
2023-04-29T12:13:29.745Z,43.00
2023-04-29T12:15:58.138Z,41.10
2023-04-29T12:18:25.754Z,42.20
2023-04-29T12:20:52.641Z,42.80
2023-04-29T12:23:24.313Z,40.80
2023-04-29T12:25:56.828Z,39.40
2023-04-29T12:28:24.440Z,42.50
2023-04-29T12:30:54.195Z,42.30
2023-04-29T12:33:26.766Z,40.80
2023-04-29T12:35:57.856Z,41.20
2023-04-29T12:38:31.970Z,43.90
2023-04-29T12:41:01.209Z,42.00
2023-04-29T12:43:31.961Z,40.80
2023-04-29T12:46:07.963Z,40.20
2023-04-29T12:48:41.498Z,40.80
2023-04-29T12:51:10.459Z,40.20
2023-04-29T12:53:37.888Z,38.50
2023-04-29T12:56:06.237Z,38.90
2023-04-29T12:58:34.828Z,41.60
2023-04-29T13:01:01.793Z,42.20
2023-04-29T13:03:28.953Z,41.40
2023-04-29T13:05:56.121Z,43.00
2023-04-29T13:08:23.135Z,42.90
2023-04-29T13:10:50.102Z,43.10
2023-04-29T13:13:16.900Z,40.80
2023-04-29T13:15:43.734Z,42.70
2023-04-29T13:18:10.582Z,47.60
2023-04-29T13:20:41.668Z,43.50
2023-04-29T13:23:09.673Z,43.90
2023-04-29T13:25:36.477Z,46.30
2023-04-29T13:28:05.371Z,45.40
2023-04-29T13:30:33.021Z,46.00
2023-04-29T13:33:07.936Z,43.30
2023-04-29T13:35:40.009Z,44.00
2023-04-29T13:38:07.127Z,44.60
2023-04-29T13:40:38.892Z,44.60
2023-04-29T13:43:09.819Z,45.30
2023-04-29T13:45:41.263Z,42.70
2023-04-29T13:48:26.204Z,41.80
2023-04-29T13:51:23.369Z,44.60
2023-04-29T13:59:31.560Z,44.30
2023-04-29T14:04:01.227Z,44.90
2023-04-29T14:06:28.515Z,45.60
2023-04-29T14:08:55.410Z,47.20
2023-04-29T14:11:22.244Z,48.00
2023-04-29T14:13:49.093Z,45.00
2023-04-29T14:16:17.091Z,43.80
2023-04-29T14:18:43.889Z,42.70
2023-04-29T14:21:11.422Z,43.40
2023-04-29T14:23:38.372Z,44.90
2023-04-29T14:26:26.541Z,43.40
2023-04-29T14:28:57.637Z,44.20
2023-04-29T14:31:31.755Z,45.60
2023-04-29T14:33:59.168Z,45.00
2023-04-29T14:36:26.810Z,44.30
2023-04-29T14:38:53.974Z,44.90
2023-04-29T14:41:23.439Z,45.70
2023-04-29T14:43:50.361Z,45.90
2023-04-29T14:46:17.436Z,45.90
2023-04-29T14:48:44.512Z,46.60
2023-04-29T14:51:11.842Z,46.90
2023-04-29T14:53:39.027Z,46.40
2023-04-29T14:56:06.250Z,47.40
2023-04-29T14:58:33.014Z,47.80
2023-04-29T15:01:10.210Z,47.80
2023-04-29T15:03:43.643Z,48.00
2023-04-29T15:06:11.772Z,48.60
2023-04-29T15:08:38.546Z,48.80
2023-04-29T15:11:05.574Z,48.50
2023-04-29T15:13:32.582Z,49.00
2023-04-29T15:15:59.465Z,50.60
2023-04-29T15:18:26.699Z,48.20
2023-04-29T15:20:53.857Z,48.90
2023-04-29T15:23:20.631Z,49.60
2023-04-29T15:25:47.632Z,49.60
2023-04-29T15:30:48.098Z,48.60
2023-04-29T15:33:14.986Z,48.80
2023-04-29T15:35:41.853Z,48.30
2023-04-29T15:38:09.135Z,48.50
2023-04-29T15:40:35.963Z,49.70
2023-04-29T15:43:02.879Z,49.20
2023-04-29T15:45:29.746Z,49.40
2023-04-29T15:47:56.544Z,50.40
2023-04-29T15:50:23.587Z,50.40
2023-04-29T15:52:55.035Z,50.90
2023-04-29T15:55:22.318Z,51.90
2023-04-29T15:57:51.425Z,52.10
2023-04-29T16:00:18.995Z,52.70
2023-04-29T16:02:45.890Z,52.10
2023-04-29T16:05:12.719Z,51.80
2023-04-29T16:07:39.529Z,53.50
2023-04-29T16:10:06.681Z,53.10
2023-04-29T16:12:33.957Z,54.90
2023-04-29T16:15:00.891Z,54.40
2023-04-29T16:17:28.482Z,52.70
2023-04-29T16:19:55.750Z,52.50
2023-04-29T16:22:22.625Z,53.40
2023-04-29T16:24:50.053Z,53.60
2023-04-29T16:27:17.686Z,53.80
2023-04-29T16:29:44.476Z,54.80
2023-04-29T16:32:11.539Z,54.40
2023-04-29T16:34:38.342Z,53.70
2023-04-29T16:37:05.208Z,54.30
2023-04-29T16:39:31.998Z,55.20
2023-04-29T16:41:59.653Z,55.10
2023-04-29T16:44:26.498Z,55.60
2023-04-29T16:46:53.566Z,54.80
2023-04-29T16:49:29.414Z,54.60
2023-04-29T16:51:56.487Z,54.60
2023-04-29T16:54:23.916Z,54.50
2023-04-29T16:56:51.306Z,54.70
2023-04-29T16:59:18.258Z,54.50
2023-04-29T17:01:45.352Z,54.60
2023-04-29T17:04:12.290Z,56.10
2023-04-29T17:06:40.631Z,56.60
2023-04-29T17:09:07.792Z,55.60
2023-04-29T17:11:34.678Z,56.10
2023-04-29T17:14:01.541Z,55.90
2023-04-29T17:16:29.919Z,54.60
2023-04-29T17:18:57.139Z,54.50
2023-04-29T17:21:25.666Z,55.00
2023-04-29T17:23:53.316Z,55.60
2023-04-29T17:26:21.217Z,56.20
2023-04-29T17:28:48.452Z,56.50
2023-04-29T17:31:15.603Z,57.10
2023-04-29T17:33:54.651Z,57.00
2023-04-29T17:36:23.885Z,57.00
2023-04-29T17:38:50.636Z,57.50
2023-04-29T17:41:17.434Z,57.70
2023-04-29T17:43:44.256Z,58.90
2023-04-29T17:46:11.071Z,58.80
2023-04-29T17:48:37.940Z,59.00
2023-04-29T17:51:04.966Z,59.00
2023-04-29T17:53:33.091Z,59.70
2023-04-29T17:55:59.971Z,59.60
2023-04-29T17:58:29.005Z,60.30
2023-04-29T18:00:56.766Z,60.40
2023-04-29T18:03:23.877Z,60.80
2023-04-29T18:05:50.907Z,61.30
2023-04-29T18:08:17.621Z,60.90
2023-04-29T18:10:44.446Z,61.60
2023-04-29T18:13:11.255Z,62.10
2023-04-29T18:15:38.149Z,62.40
2023-04-29T18:18:05.054Z,62.90
2023-04-29T18:20:31.964Z,63.40
2023-04-29T18:22:58.771Z,63.90
2023-04-29T18:25:26.345Z,64.10
2023-04-29T18:28:00.108Z,64.50
2023-04-29T18:30:40.568Z,64.00
2023-04-29T18:33:07.514Z,63.90
2023-04-29T18:35:35.016Z,63.90
2023-04-29T18:38:02.406Z,63.60
2023-04-29T18:40:29.204Z,63.60
2023-04-29T18:42:55.933Z,62.80
2023-04-29T18:45:22.891Z,61.80
2023-04-29T18:47:49.770Z,62.20
2023-04-29T18:50:17.030Z,62.20
2023-04-29T18:52:43.807Z,62.30
2023-04-29T18:55:11.114Z,62.80
2023-04-29T18:57:37.869Z,62.60
2023-04-29T19:00:06.083Z,63.80
2023-04-29T19:02:32.892Z,63.50
2023-04-29T19:05:02.571Z,63.40
2023-04-29T19:07:29.618Z,63.80
2023-04-29T19:09:56.772Z,64.50
2023-04-29T19:12:25.520Z,65.00
2023-04-29T19:14:52.322Z,65.10
2023-04-29T19:17:19.194Z,65.90
2023-04-29T19:19:45.938Z,66.00
2023-04-29T19:22:12.810Z,66.80
2023-04-29T19:27:07.992Z,67.80
2023-04-29T19:29:34.863Z,67.70
2023-04-29T19:32:01.716Z,68.50
2023-04-29T19:34:28.511Z,68.00
2023-04-29T19:36:56.798Z,68.60
2023-04-29T19:39:23.664Z,68.80
2023-04-29T19:41:50.530Z,69.00
2023-04-29T19:44:17.346Z,69.60
2023-04-29T19:46:44.311Z,69.60
2023-04-29T19:49:12.754Z,69.60
2023-04-29T19:51:40.826Z,70.00
2023-04-29T19:54:07.622Z,70.00
2023-04-29T19:56:34.424Z,70.20
2023-04-29T19:59:01.180Z,70.30
2023-04-29T20:01:28.047Z,70.50
2023-04-29T20:03:54.803Z,70.80
2023-04-29T20:06:21.672Z,70.40
2023-04-29T20:08:48.546Z,70.80
2023-04-29T20:11:17.630Z,70.70
2023-04-29T20:13:44.766Z,70.60
2023-04-29T20:16:11.711Z,70.10
2023-04-29T20:18:40.701Z,70.60
2023-04-29T20:21:07.704Z,70.80
2023-04-29T20:23:34.474Z,70.60
2023-04-29T20:26:01.481Z,70.80
2023-04-29T20:28:28.302Z,70.90
2023-04-29T20:30:55.090Z,71.30
2023-04-29T20:33:21.941Z,71.20
2023-04-29T20:35:48.710Z,71.50
2023-04-29T20:38:15.578Z,71.20
2023-04-29T20:40:43.382Z,71.40
2023-04-29T20:43:10.782Z,71.50
2023-04-29T20:45:38.128Z,71.60
2023-04-29T20:48:05.617Z,71.90
2023-04-29T20:50:32.456Z,72.00
2023-04-29T20:52:59.314Z,71.10
2023-04-29T20:55:26.236Z,71.90
2023-04-29T20:57:52.993Z,71.20
2023-04-29T21:00:19.773Z,71.30
2023-04-29T21:02:46.816Z,71.70
2023-04-29T21:05:13.695Z,72.00
2023-04-29T21:07:40.651Z,72.60
2023-04-29T21:10:07.862Z,72.30
2023-04-29T21:12:34.564Z,73.00
2023-04-29T21:15:01.346Z,72.70
2023-04-29T21:17:28.809Z,72.20
2023-04-29T21:19:56.630Z,73.00
2023-04-29T21:22:23.371Z,73.10
2023-04-29T21:24:50.181Z,73.00
2023-04-29T21:27:17.282Z,72.90
2023-04-29T21:29:44.054Z,73.40
2023-04-29T21:32:10.817Z,73.40
2023-04-29T21:34:37.529Z,73.10
2023-04-29T21:37:04.744Z,73.80
2023-04-29T21:39:32.217Z,74.20
2023-04-29T21:42:00.744Z,73.80
2023-04-29T21:44:27.626Z,73.80
2023-04-29T21:46:54.611Z,74.80
2023-04-29T21:49:21.398Z,75.20
2023-04-29T21:51:48.482Z,75.70
2023-04-29T21:54:15.559Z,76.10
2023-04-29T21:56:42.535Z,76.70
2023-04-29T21:59:09.285Z,77.50
2023-04-29T22:01:44.976Z,77.30
2023-04-29T22:04:11.887Z,77.60
2023-04-29T22:06:38.856Z,78.10
2023-04-29T22:09:07.240Z,78.40
2023-04-29T22:11:34.142Z,78.60
2023-04-29T22:14:00.947Z,78.60
2023-04-29T22:16:27.807Z,79.60
2023-04-29T22:18:57.395Z,79.90
2023-04-29T22:21:24.231Z,80.40
2023-04-29T22:23:51.152Z,80.60
2023-04-29T22:26:18.601Z,81.20
2023-04-29T22:28:45.498Z,81.50
2023-04-29T22:31:12.292Z,81.40
2023-04-29T22:33:39.105Z,81.50
2023-04-29T22:36:06.382Z,82.00
2023-04-29T22:38:33.216Z,82.30
2023-04-29T22:40:59.998Z,83.00
2023-04-29T22:43:26.791Z,82.70
2023-04-29T22:45:54.602Z,83.70
2023-04-29T22:48:21.706Z,83.60
2023-04-29T22:50:57.170Z,83.70
2023-04-29T22:53:23.997Z,84.30
2023-04-29T22:55:55.078Z,84.30
2023-04-29T22:58:22.549Z,84.70
2023-04-29T23:00:54.883Z,85.50
2023-04-29T23:03:21.755Z,84.40
2023-04-29T23:05:48.789Z,85.70
2023-04-29T23:08:15.740Z,85.20
2023-04-29T23:10:49.024Z,85.90
2023-04-29T23:13:16.733Z,85.80
2023-04-29T23:15:43.934Z,86.00
2023-04-29T23:18:11.053Z,86.00
2023-04-29T23:20:38.195Z,85.60
2023-04-29T23:23:05.190Z,85.90
2023-04-29T23:25:31.946Z,87.30
2023-04-29T23:27:58.717Z,86.60
2023-04-29T23:30:25.660Z,87.00
2023-04-29T23:32:52.455Z,87.60
2023-04-29T23:35:19.326Z,87.30
2023-04-29T23:37:46.082Z,87.90
2023-04-29T23:40:12.836Z,88.20
2023-04-29T23:42:39.636Z,88.20
2023-04-29T23:45:07.361Z,87.50
2023-04-29T23:47:34.188Z,88.10
2023-04-29T23:50:00.932Z,87.70
2023-04-29T23:52:27.761Z,87.70
2023-04-29T23:54:54.482Z,87.80
2023-04-29T23:57:21.395Z,88.00
2023-04-29T23:59:48.106Z,88.20
